sensor_id;sensor_type;location;lat;lon;timestamp;temperature;humidity
2463;DHT22;1243;54.298;10.172;2023-07-31T00:00:25;14.30;1.00
2463;DHT22;1243;54.298;10.172;2023-07-31T00:02:52;14.30;1.00
2463;DHT22;1243;54.298;10.172;2023-07-31T00:05:18;14.30;1.00
2463;DHT22;1243;54.298;10.172;2023-07-31T00:07:43;14.30;1.00
2463;DHT22;1243;54.298;10.172;2023-07-31T00:10:09;14.30;1.00
2463;DHT22;1243;54.298;10.172;2023-07-31T00:12:35;14.30;1.00
2463;DHT22;1243;54.298;10.172;2023-07-31T00:15:01;14.30;1.00
2463;DHT22;1243;54.298;10.172;2023-07-31T00:17:28;14.30;1.00
2463;DHT22;1243;54.298;10.172;2023-07-31T00:19:53;14.30;1.00
2463;DHT22;1243;54.298;10.172;2023-07-31T00:22:19;14.30;1.00
2463;DHT22;1243;54.298;10.172;2023-07-31T00:24:45;14.40;1.00
2463;DHT22;1243;54.298;10.172;2023-07-31T00:27:11;14.40;1.00
2463;DHT22;1243;54.298;10.172;2023-07-31T00:29:36;14.40;1.00
2463;DHT22;1243;54.298;10.172;2023-07-31T00:32:02;14.40;1.00
2463;DHT22;1243;54.298;10.172;2023-07-31T00:34:28;14.30;1.00
2463;DHT22;1243;54.298;10.172;2023-07-31T00:36:53;14.30;1.00
2463;DHT22;1243;54.298;10.172;2023-07-31T00:39:19;14.30;1.00
2463;DHT22;1243;54.298;10.172;2023-07-31T00:41:45;14.40;1.00
2463;DHT22;1243;54.298;10.172;2023-07-31T00:44:10;14.30;1.00
2463;DHT22;1243;54.298;10.172;2023-07-31T00:46:36;14.30;1.00
2463;DHT22;1243;54.298;10.172;2023-07-31T00:49:03;14.30;1.00
2463;DHT22;1243;54.298;10.172;2023-07-31T00:51:29;14.30;1.00
2463;DHT22;1243;54.298;10.172;2023-07-31T00:53:55;14.20;1.00
2463;DHT22;1243;54.298;10.172;2023-07-31T00:56:21;14.20;1.00
2463;DHT22;1243;54.298;10.172;2023-07-31T00:58:47;14.20;1.00
2463;DHT22;1243;54.298;10.172;2023-07-31T01:01:13;14.20;1.00
2463;DHT22;1243;54.298;10.172;2023-07-31T01:03:39;14.20;1.00
2463;DHT22;1243;54.298;10.172;2023-07-31T01:11:31;14.20;1.00
2463;DHT22;1243;54.298;10.172;2023-07-31T01:13:57;14.20;1.00
2463;DHT22;1243;54.298;10.172;2023-07-31T01:16:24;14.20;1.00
2463;DHT22;1243;54.298;10.172;2023-07-31T01:18:50;14.20;1.00
2463;DHT22;1243;54.298;10.172;2023-07-31T01:21:22;14.20;1.00
2463;DHT22;1243;54.298;10.172;2023-07-31T01:23:56;14.10;1.00
2463;DHT22;1243;54.298;10.172;2023-07-31T01:26:30;14.10;1.00
2463;DHT22;1243;54.298;10.172;2023-07-31T01:29:07;14.10;1.00
2463;DHT22;1243;54.298;10.172;2023-07-31T01:31:36;14.20;1.00
2463;DHT22;1243;54.298;10.172;2023-07-31T01:34:02;14.20;1.00
2463;DHT22;1243;54.298;10.172;2023-07-31T01:36:30;14.20;1.00
2463;DHT22;1243;54.298;10.172;2023-07-31T01:38:59;14.10;1.00
2463;DHT22;1243;54.298;10.172;2023-07-31T01:41:26;14.10;1.00
2463;DHT22;1243;54.298;10.172;2023-07-31T01:43:52;14.00;1.00
2463;DHT22;1243;54.298;10.172;2023-07-31T01:46:17;13.90;1.00
2463;DHT22;1243;54.298;10.172;2023-07-31T01:48:43;13.90;1.00
2463;DHT22;1243;54.298;10.172;2023-07-31T01:51:09;13.90;1.00
2463;DHT22;1243;54.298;10.172;2023-07-31T01:53:34;13.90;1.00
2463;DHT22;1243;54.298;10.172;2023-07-31T01:56:00;13.80;1.00
2463;DHT22;1243;54.298;10.172;2023-07-31T01:58:26;13.80;1.00
2463;DHT22;1243;54.298;10.172;2023-07-31T02:00:51;13.80;1.00
2463;DHT22;1243;54.298;10.172;2023-07-31T02:03:17;13.80;1.00
2463;DHT22;1243;54.298;10.172;2023-07-31T02:05:46;13.80;1.00
2463;DHT22;1243;54.298;10.172;2023-07-31T02:08:13;13.80;1.00
2463;DHT22;1243;54.298;10.172;2023-07-31T02:10:38;13.80;1.00
2463;DHT22;1243;54.298;10.172;2023-07-31T02:13:04;13.90;1.00
2463;DHT22;1243;54.298;10.172;2023-07-31T02:15:30;13.90;1.00
2463;DHT22;1243;54.298;10.172;2023-07-31T02:17:56;13.90;1.00
2463;DHT22;1243;54.298;10.172;2023-07-31T02:20:22;13.90;1.00
2463;DHT22;1243;54.298;10.172;2023-07-31T02:22:47;13.90;1.00
2463;DHT22;1243;54.298;10.172;2023-07-31T02:25:13;13.90;1.00
2463;DHT22;1243;54.298;10.172;2023-07-31T02:27:39;13.90;1.00
2463;DHT22;1243;54.298;10.172;2023-07-31T02:30:05;13.80;1.00
2463;DHT22;1243;54.298;10.172;2023-07-31T02:32:31;13.80;1.00
2463;DHT22;1243;54.298;10.172;2023-07-31T02:34:57;13.80;1.00
2463;DHT22;1243;54.298;10.172;2023-07-31T02:37:23;13.80;1.00
2463;DHT22;1243;54.298;10.172;2023-07-31T02:39:49;13.90;1.00
2463;DHT22;1243;54.298;10.172;2023-07-31T02:42:14;13.90;1.00
2463;DHT22;1243;54.298;10.172;2023-07-31T02:44:40;13.90;1.00
2463;DHT22;1243;54.298;10.172;2023-07-31T02:47:06;13.90;1.00
2463;DHT22;1243;54.298;10.172;2023-07-31T02:49:32;13.90;1.00
2463;DHT22;1243;54.298;10.172;2023-07-31T02:51:57;13.90;1.00
2463;DHT22;1243;54.298;10.172;2023-07-31T02:54:23;14.00;1.00
2463;DHT22;1243;54.298;10.172;2023-07-31T02:56:49;14.00;1.00
2463;DHT22;1243;54.298;10.172;2023-07-31T02:59:17;14.10;1.00
2463;DHT22;1243;54.298;10.172;2023-07-31T03:01:43;14.00;1.00
2463;DHT22;1243;54.298;10.172;2023-07-31T03:04:09;14.00;1.00
2463;DHT22;1243;54.298;10.172;2023-07-31T03:06:34;14.10;1.00
2463;DHT22;1243;54.298;10.172;2023-07-31T03:09:00;14.10;1.00
2463;DHT22;1243;54.298;10.172;2023-07-31T03:11:26;14.10;1.00
2463;DHT22;1243;54.298;10.172;2023-07-31T03:13:51;14.10;1.00
2463;DHT22;1243;54.298;10.172;2023-07-31T03:16:17;14.10;1.00
2463;DHT22;1243;54.298;10.172;2023-07-31T03:18:43;14.00;1.00
2463;DHT22;1243;54.298;10.172;2023-07-31T03:21:09;14.10;1.00
2463;DHT22;1243;54.298;10.172;2023-07-31T03:23:34;14.10;1.00
2463;DHT22;1243;54.298;10.172;2023-07-31T03:26:02;14.10;1.00
2463;DHT22;1243;54.298;10.172;2023-07-31T03:28:31;14.10;1.00
2463;DHT22;1243;54.298;10.172;2023-07-31T03:30:56;14.20;1.00
2463;DHT22;1243;54.298;10.172;2023-07-31T03:33:22;14.20;1.00
2463;DHT22;1243;54.298;10.172;2023-07-31T03:35:48;14.20;1.00
2463;DHT22;1243;54.298;10.172;2023-07-31T03:38:13;14.20;1.00
2463;DHT22;1243;54.298;10.172;2023-07-31T03:40:39;14.30;1.00
2463;DHT22;1243;54.298;10.172;2023-07-31T03:43:05;14.30;1.00
2463;DHT22;1243;54.298;10.172;2023-07-31T03:45:31;14.40;1.00
2463;DHT22;1243;54.298;10.172;2023-07-31T03:47:57;14.40;1.00
2463;DHT22;1243;54.298;10.172;2023-07-31T03:50:22;14.40;1.00
2463;DHT22;1243;54.298;10.172;2023-07-31T03:52:48;14.50;1.00
2463;DHT22;1243;54.298;10.172;2023-07-31T03:55:14;14.50;1.00
2463;DHT22;1243;54.298;10.172;2023-07-31T03:57:39;14.60;1.00
2463;DHT22;1243;54.298;10.172;2023-07-31T04:00:06;14.60;1.00
2463;DHT22;1243;54.298;10.172;2023-07-31T04:02:32;14.60;1.00
2463;DHT22;1243;54.298;10.172;2023-07-31T04:04:57;14.60;1.00
2463;DHT22;1243;54.298;10.172;2023-07-31T04:07:23;14.70;1.00
2463;DHT22;1243;54.298;10.172;2023-07-31T04:09:48;14.70;1.00
2463;DHT22;1243;54.298;10.172;2023-07-31T04:12:14;14.70;1.00
2463;DHT22;1243;54.298;10.172;2023-07-31T04:14:40;14.70;1.00
2463;DHT22;1243;54.298;10.172;2023-07-31T04:17:06;14.80;1.00
2463;DHT22;1243;54.298;10.172;2023-07-31T04:19:31;14.80;6.40
2463;DHT22;1243;54.298;10.172;2023-07-31T04:21:57;14.80;11.20
2463;DHT22;1243;54.298;10.172;2023-07-31T04:24:23;14.80;18.80
2463;DHT22;1243;54.298;10.172;2023-07-31T04:26:52;14.80;24.30
2463;DHT22;1243;54.298;10.172;2023-07-31T04:29:18;14.80;37.00
2463;DHT22;1243;54.298;10.172;2023-07-31T04:31:43;14.80;37.10
2463;DHT22;1243;54.298;10.172;2023-07-31T04:34:09;14.80;37.00
2463;DHT22;1243;54.298;10.172;2023-07-31T04:36:35;14.80;64.70
2463;DHT22;1243;54.298;10.172;2023-07-31T04:39:01;14.80;84.20
2463;DHT22;1243;54.298;10.172;2023-07-31T04:41:26;14.90;90.90
2463;DHT22;1243;54.298;10.172;2023-07-31T04:43:53;14.90;95.70
2463;DHT22;1243;54.298;10.172;2023-07-31T04:46:19;14.90;99.90
2463;DHT22;1243;54.298;10.172;2023-07-31T04:48:44;14.90;99.90
2463;DHT22;1243;54.298;10.172;2023-07-31T04:51:10;14.90;99.90
2463;DHT22;1243;54.298;10.172;2023-07-31T04:53:36;14.90;99.90
2463;DHT22;1243;54.298;10.172;2023-07-31T04:56:02;14.90;99.90
2463;DHT22;1243;54.298;10.172;2023-07-31T04:58:28;15.00;99.90
2463;DHT22;1243;54.298;10.172;2023-07-31T05:00:53;15.00;99.90
2463;DHT22;1243;54.298;10.172;2023-07-31T05:03:19;15.00;99.90
2463;DHT22;1243;54.298;10.172;2023-07-31T05:05:45;15.00;99.90
2463;DHT22;1243;54.298;10.172;2023-07-31T05:08:10;15.00;99.90
2463;DHT22;1243;54.298;10.172;2023-07-31T05:10:36;15.00;99.90
2463;DHT22;1243;54.298;10.172;2023-07-31T05:13:02;15.00;99.90
2463;DHT22;1243;54.298;10.172;2023-07-31T05:15:28;15.00;99.90
2463;DHT22;1243;54.298;10.172;2023-07-31T05:17:53;15.00;99.90
2463;DHT22;1243;54.298;10.172;2023-07-31T05:20:20;15.00;99.90
2463;DHT22;1243;54.298;10.172;2023-07-31T05:22:45;15.00;99.90
2463;DHT22;1243;54.298;10.172;2023-07-31T05:25:11;15.10;99.90
2463;DHT22;1243;54.298;10.172;2023-07-31T05:27:37;15.10;99.90
2463;DHT22;1243;54.298;10.172;2023-07-31T05:30:03;15.10;99.90
2463;DHT22;1243;54.298;10.172;2023-07-31T05:32:29;15.20;99.90
2463;DHT22;1243;54.298;10.172;2023-07-31T05:34:54;15.30;99.90
2463;DHT22;1243;54.298;10.172;2023-07-31T05:37:20;15.20;99.90
2463;DHT22;1243;54.298;10.172;2023-07-31T05:39:46;15.20;99.90
2463;DHT22;1243;54.298;10.172;2023-07-31T05:42:11;15.20;99.90
2463;DHT22;1243;54.298;10.172;2023-07-31T05:44:37;15.20;99.90
2463;DHT22;1243;54.298;10.172;2023-07-31T05:47:03;15.30;99.90
2463;DHT22;1243;54.298;10.172;2023-07-31T05:49:28;15.30;99.90
2463;DHT22;1243;54.298;10.172;2023-07-31T05:51:54;15.30;99.90
2463;DHT22;1243;54.298;10.172;2023-07-31T05:54:20;15.30;99.90
2463;DHT22;1243;54.298;10.172;2023-07-31T05:56:45;15.30;99.90
2463;DHT22;1243;54.298;10.172;2023-07-31T05:59:12;15.30;99.90
2463;DHT22;1243;54.298;10.172;2023-07-31T06:01:39;15.30;99.90
2463;DHT22;1243;54.298;10.172;2023-07-31T06:04:04;15.30;99.90
2463;DHT22;1243;54.298;10.172;2023-07-31T06:06:30;15.40;99.90
2463;DHT22;1243;54.298;10.172;2023-07-31T06:08:56;15.40;99.90
2463;DHT22;1243;54.298;10.172;2023-07-31T06:11:22;15.40;99.90
2463;DHT22;1243;54.298;10.172;2023-07-31T06:13:48;15.40;99.90
2463;DHT22;1243;54.298;10.172;2023-07-31T06:16:15;15.40;99.90
2463;DHT22;1243;54.298;10.172;2023-07-31T06:18:41;15.50;99.90
2463;DHT22;1243;54.298;10.172;2023-07-31T06:21:07;15.40;99.90
2463;DHT22;1243;54.298;10.172;2023-07-31T06:23:33;15.50;99.90
2463;DHT22;1243;54.298;10.172;2023-07-31T06:25:59;15.50;99.90
2463;DHT22;1243;54.298;10.172;2023-07-31T06:28:28;15.50;99.90
2463;DHT22;1243;54.298;10.172;2023-07-31T06:30:58;15.60;99.90
2463;DHT22;1243;54.298;10.172;2023-07-31T06:33:23;15.60;99.90
2463;DHT22;1243;54.298;10.172;2023-07-31T06:35:50;15.60;99.90
2463;DHT22;1243;54.298;10.172;2023-07-31T06:38:18;15.60;99.90
2463;DHT22;1243;54.298;10.172;2023-07-31T06:40:43;15.60;99.90
2463;DHT22;1243;54.298;10.172;2023-07-31T06:43:09;15.60;99.90
2463;DHT22;1243;54.298;10.172;2023-07-31T06:45:36;15.60;99.90
2463;DHT22;1243;54.298;10.172;2023-07-31T06:48:02;15.70;99.90
2463;DHT22;1243;54.298;10.172;2023-07-31T06:50:32;15.70;99.90
2463;DHT22;1243;54.298;10.172;2023-07-31T06:52:58;15.70;99.90
2463;DHT22;1243;54.298;10.172;2023-07-31T06:55:24;15.80;99.90
2463;DHT22;1243;54.298;10.172;2023-07-31T06:57:54;15.70;99.90
2463;DHT22;1243;54.298;10.172;2023-07-31T07:00:21;15.70;99.90
2463;DHT22;1243;54.298;10.172;2023-07-31T07:02:47;15.80;99.90
2463;DHT22;1243;54.298;10.172;2023-07-31T07:05:14;15.80;99.90
2463;DHT22;1243;54.298;10.172;2023-07-31T07:07:40;15.80;99.90
2463;DHT22;1243;54.298;10.172;2023-07-31T07:10:06;15.90;99.90
2463;DHT22;1243;54.298;10.172;2023-07-31T07:12:33;15.90;99.90
2463;DHT22;1243;54.298;10.172;2023-07-31T07:14:59;15.90;99.90
2463;DHT22;1243;54.298;10.172;2023-07-31T07:17:26;16.00;99.90
2463;DHT22;1243;54.298;10.172;2023-07-31T07:19:53;15.90;99.90
2463;DHT22;1243;54.298;10.172;2023-07-31T07:22:18;16.00;99.90
2463;DHT22;1243;54.298;10.172;2023-07-31T07:24:44;16.00;99.90
2463;DHT22;1243;54.298;10.172;2023-07-31T07:27:10;15.90;99.90
2463;DHT22;1243;54.298;10.172;2023-07-31T07:29:37;16.00;99.90
2463;DHT22;1243;54.298;10.172;2023-07-31T07:32:03;16.00;99.90
2463;DHT22;1243;54.298;10.172;2023-07-31T07:34:29;16.00;99.90
2463;DHT22;1243;54.298;10.172;2023-07-31T07:36:55;16.10;99.90
2463;DHT22;1243;54.298;10.172;2023-07-31T07:39:21;16.10;99.90
2463;DHT22;1243;54.298;10.172;2023-07-31T07:41:47;16.20;99.90
2463;DHT22;1243;54.298;10.172;2023-07-31T07:44:13;16.20;99.90
2463;DHT22;1243;54.298;10.172;2023-07-31T07:46:39;16.20;99.90
2463;DHT22;1243;54.298;10.172;2023-07-31T07:49:05;16.30;99.90
2463;DHT22;1243;54.298;10.172;2023-07-31T07:51:31;16.30;99.90
2463;DHT22;1243;54.298;10.172;2023-07-31T07:53:58;16.30;99.90
2463;DHT22;1243;54.298;10.172;2023-07-31T07:56:25;16.30;99.90
2463;DHT22;1243;54.298;10.172;2023-07-31T07:58:51;16.40;99.90
2463;DHT22;1243;54.298;10.172;2023-07-31T08:01:16;16.40;99.90
2463;DHT22;1243;54.298;10.172;2023-07-31T08:03:42;16.40;99.90
2463;DHT22;1243;54.298;10.172;2023-07-31T08:06:08;16.40;99.90
2463;DHT22;1243;54.298;10.172;2023-07-31T08:08:35;16.50;99.90
2463;DHT22;1243;54.298;10.172;2023-07-31T08:11:01;16.50;99.90
2463;DHT22;1243;54.298;10.172;2023-07-31T08:13:27;16.50;99.90
2463;DHT22;1243;54.298;10.172;2023-07-31T08:15:53;16.50;99.90
2463;DHT22;1243;54.298;10.172;2023-07-31T08:18:18;16.50;97.20
2463;DHT22;1243;54.298;10.172;2023-07-31T08:20:44;16.60;96.40
2463;DHT22;1243;54.298;10.172;2023-07-31T08:23:10;16.60;93.60
2463;DHT22;1243;54.298;10.172;2023-07-31T08:25:36;16.60;91.40
2463;DHT22;1243;54.298;10.172;2023-07-31T08:28:03;16.60;85.70
2463;DHT22;1243;54.298;10.172;2023-07-31T08:30:29;16.70;85.70
2463;DHT22;1243;54.298;10.172;2023-07-31T08:32:55;16.70;85.70
2463;DHT22;1243;54.298;10.172;2023-07-31T08:35:21;16.70;78.30
2463;DHT22;1243;54.298;10.172;2023-07-31T08:37:47;16.70;75.90
2463;DHT22;1243;54.298;10.172;2023-07-31T08:40:12;16.70;61.10
2463;DHT22;1243;54.298;10.172;2023-07-31T08:42:49;16.70;57.40
2463;DHT22;1243;54.298;10.172;2023-07-31T08:45:17;16.70;53.10
2463;DHT22;1243;54.298;10.172;2023-07-31T08:47:45;16.70;39.00
2463;DHT22;1243;54.298;10.172;2023-07-31T08:50:13;16.80;39.40
2463;DHT22;1243;54.298;10.172;2023-07-31T08:52:39;16.90;39.30
2463;DHT22;1243;54.298;10.172;2023-07-31T08:55:05;16.90;38.60
2463;DHT22;1243;54.298;10.172;2023-07-31T08:57:31;17.00;20.50
2463;DHT22;1243;54.298;10.172;2023-07-31T08:59:59;17.00;1.00
2463;DHT22;1243;54.298;10.172;2023-07-31T09:02:26;17.00;1.00
2463;DHT22;1243;54.298;10.172;2023-07-31T09:04:55;16.90;1.00
2463;DHT22;1243;54.298;10.172;2023-07-31T09:07:21;16.90;1.00
2463;DHT22;1243;54.298;10.172;2023-07-31T09:09:47;16.80;1.00
2463;DHT22;1243;54.298;10.172;2023-07-31T09:12:13;16.80;1.00
2463;DHT22;1243;54.298;10.172;2023-07-31T09:14:39;16.80;1.00
2463;DHT22;1243;54.298;10.172;2023-07-31T09:17:05;16.80;1.00
2463;DHT22;1243;54.298;10.172;2023-07-31T09:19:35;16.70;1.00
2463;DHT22;1243;54.298;10.172;2023-07-31T09:22:05;16.70;1.00
2463;DHT22;1243;54.298;10.172;2023-07-31T09:24:33;16.70;1.00
2463;DHT22;1243;54.298;10.172;2023-07-31T09:27:00;16.70;1.00
2463;DHT22;1243;54.298;10.172;2023-07-31T09:29:27;16.70;1.00
2463;DHT22;1243;54.298;10.172;2023-07-31T09:31:54;16.70;1.00
2463;DHT22;1243;54.298;10.172;2023-07-31T09:34:27;16.80;1.00
2463;DHT22;1243;54.298;10.172;2023-07-31T09:36:54;16.80;1.00
2463;DHT22;1243;54.298;10.172;2023-07-31T09:39:20;16.70;1.00
2463;DHT22;1243;54.298;10.172;2023-07-31T09:41:53;16.70;1.00
2463;DHT22;1243;54.298;10.172;2023-07-31T09:44:19;16.70;1.00
2463;DHT22;1243;54.298;10.172;2023-07-31T09:46:45;16.70;1.00
2463;DHT22;1243;54.298;10.172;2023-07-31T09:49:12;16.70;1.00
2463;DHT22;1243;54.298;10.172;2023-07-31T09:51:40;16.60;1.00
2463;DHT22;1243;54.298;10.172;2023-07-31T09:54:16;16.70;1.00
2463;DHT22;1243;54.298;10.172;2023-07-31T09:56:48;16.60;1.00
2463;DHT22;1243;54.298;10.172;2023-07-31T09:59:16;16.60;1.00
2463;DHT22;1243;54.298;10.172;2023-07-31T10:01:43;16.50;1.00
2463;DHT22;1243;54.298;10.172;2023-07-31T10:04:10;16.50;1.00
2463;DHT22;1243;54.298;10.172;2023-07-31T10:06:36;16.50;1.00
2463;DHT22;1243;54.298;10.172;2023-07-31T10:09:07;16.70;1.00
2463;DHT22;1243;54.298;10.172;2023-07-31T10:11:46;16.70;1.00
2463;DHT22;1243;54.298;10.172;2023-07-31T10:14:20;16.70;1.00
2463;DHT22;1243;54.298;10.172;2023-07-31T10:16:47;16.70;1.00
2463;DHT22;1243;54.298;10.172;2023-07-31T10:19:14;16.70;1.00
2463;DHT22;1243;54.298;10.172;2023-07-31T10:21:41;16.80;1.00
2463;DHT22;1243;54.298;10.172;2023-07-31T10:24:08;16.70;1.00
2463;DHT22;1243;54.298;10.172;2023-07-31T10:26:35;16.70;1.00
2463;DHT22;1243;54.298;10.172;2023-07-31T10:29:03;16.70;1.00
2463;DHT22;1243;54.298;10.172;2023-07-31T10:31:30;16.80;2.10
2463;DHT22;1243;54.298;10.172;2023-07-31T10:33:57;16.80;14.10
2463;DHT22;1243;54.298;10.172;2023-07-31T10:36:24;16.90;28.30
2463;DHT22;1243;54.298;10.172;2023-07-31T10:38:51;17.00;39.40
2463;DHT22;1243;54.298;10.172;2023-07-31T10:41:17;17.10;39.50
2463;DHT22;1243;54.298;10.172;2023-07-31T10:43:45;17.20;47.20
2463;DHT22;1243;54.298;10.172;2023-07-31T10:46:12;17.10;39.50
2463;DHT22;1243;54.298;10.172;2023-07-31T10:48:39;17.20;39.70
2463;DHT22;1243;54.298;10.172;2023-07-31T10:51:10;17.30;39.70
2463;DHT22;1243;54.298;10.172;2023-07-31T10:53:38;17.20;39.50
2463;DHT22;1243;54.298;10.172;2023-07-31T10:56:12;17.20;30.90
2463;DHT22;1243;54.298;10.172;2023-07-31T10:58:44;17.30;39.60
2463;DHT22;1243;54.298;10.172;2023-07-31T11:01:09;17.40;39.80
2463;DHT22;1243;54.298;10.172;2023-07-31T11:03:43;17.40;22.60
2463;DHT22;1243;54.298;10.172;2023-07-31T11:06:09;17.50;15.50
2463;DHT22;1243;54.298;10.172;2023-07-31T11:08:44;17.40;1.00
2463;DHT22;1243;54.298;10.172;2023-07-31T11:11:14;17.40;1.00
2463;DHT22;1243;54.298;10.172;2023-07-31T11:13:52;17.40;1.00
2463;DHT22;1243;54.298;10.172;2023-07-31T11:16:23;17.50;7.50
2463;DHT22;1243;54.298;10.172;2023-07-31T11:18:50;17.50;1.00
2463;DHT22;1243;54.298;10.172;2023-07-31T11:21:19;17.40;1.00
2463;DHT22;1243;54.298;10.172;2023-07-31T11:23:52;17.40;1.00
2463;DHT22;1243;54.298;10.172;2023-07-31T11:26:19;17.30;1.00
2463;DHT22;1243;54.298;10.172;2023-07-31T11:28:49;17.30;1.00
2463;DHT22;1243;54.298;10.172;2023-07-31T11:31:15;17.30;1.00
2463;DHT22;1243;54.298;10.172;2023-07-31T11:33:41;17.30;1.00
2463;DHT22;1243;54.298;10.172;2023-07-31T11:36:14;17.40;1.00
2463;DHT22;1243;54.298;10.172;2023-07-31T11:38:40;17.30;1.00
2463;DHT22;1243;54.298;10.172;2023-07-31T11:41:07;17.40;1.00
2463;DHT22;1243;54.298;10.172;2023-07-31T11:43:33;17.40;1.00
2463;DHT22;1243;54.298;10.172;2023-07-31T11:46:02;17.50;1.00
2463;DHT22;1243;54.298;10.172;2023-07-31T11:48:37;17.50;1.00
2463;DHT22;1243;54.298;10.172;2023-07-31T11:51:05;17.40;1.00
2463;DHT22;1243;54.298;10.172;2023-07-31T11:53:51;17.30;1.00
2463;DHT22;1243;54.298;10.172;2023-07-31T11:56:18;17.40;1.00
2463;DHT22;1243;54.298;10.172;2023-07-31T11:58:47;17.40;1.00
2463;DHT22;1243;54.298;10.172;2023-07-31T12:01:19;17.30;1.00
2463;DHT22;1243;54.298;10.172;2023-07-31T12:03:46;17.20;1.00
2463;DHT22;1243;54.298;10.172;2023-07-31T12:06:12;17.10;1.00
2463;DHT22;1243;54.298;10.172;2023-07-31T12:08:41;17.10;1.00
2463;DHT22;1243;54.298;10.172;2023-07-31T12:11:08;17.00;1.00
2463;DHT22;1243;54.298;10.172;2023-07-31T12:13:35;16.90;1.00
2463;DHT22;1243;54.298;10.172;2023-07-31T12:16:02;16.80;1.00
2463;DHT22;1243;54.298;10.172;2023-07-31T12:18:30;16.70;1.00
2463;DHT22;1243;54.298;10.172;2023-07-31T12:21:00;16.70;1.00
2463;DHT22;1243;54.298;10.172;2023-07-31T12:23:28;16.70;1.00
2463;DHT22;1243;54.298;10.172;2023-07-31T12:26:23;16.60;1.00
2463;DHT22;1243;54.298;10.172;2023-07-31T12:28:50;16.60;1.00
2463;DHT22;1243;54.298;10.172;2023-07-31T12:31:21;16.70;1.00
2463;DHT22;1243;54.298;10.172;2023-07-31T12:33:48;16.70;1.00
2463;DHT22;1243;54.298;10.172;2023-07-31T12:36:23;16.60;1.00
2463;DHT22;1243;54.298;10.172;2023-07-31T12:38:50;16.60;1.00
2463;DHT22;1243;54.298;10.172;2023-07-31T12:41:16;16.60;1.00
2463;DHT22;1243;54.298;10.172;2023-07-31T12:43:44;16.60;1.00
2463;DHT22;1243;54.298;10.172;2023-07-31T12:46:10;16.50;1.00
2463;DHT22;1243;54.298;10.172;2023-07-31T12:48:37;16.60;1.00
2463;DHT22;1243;54.298;10.172;2023-07-31T12:51:03;16.60;1.00
2463;DHT22;1243;54.298;10.172;2023-07-31T12:53:29;16.50;1.00
2463;DHT22;1243;54.298;10.172;2023-07-31T12:55:56;16.50;1.00
2463;DHT22;1243;54.298;10.172;2023-07-31T12:58:22;16.50;1.00
2463;DHT22;1243;54.298;10.172;2023-07-31T13:00:49;16.50;1.00
2463;DHT22;1243;54.298;10.172;2023-07-31T13:03:16;16.40;1.00
2463;DHT22;1243;54.298;10.172;2023-07-31T13:05:41;16.50;1.00
2463;DHT22;1243;54.298;10.172;2023-07-31T13:08:07;16.50;1.00
2463;DHT22;1243;54.298;10.172;2023-07-31T13:10:34;16.60;1.00
2463;DHT22;1243;54.298;10.172;2023-07-31T13:13:00;16.60;1.00
2463;DHT22;1243;54.298;10.172;2023-07-31T13:15:25;16.70;1.00
2463;DHT22;1243;54.298;10.172;2023-07-31T13:17:52;16.70;1.00
2463;DHT22;1243;54.298;10.172;2023-07-31T13:20:19;16.80;1.00
2463;DHT22;1243;54.298;10.172;2023-07-31T13:22:45;16.80;1.00
2463;DHT22;1243;54.298;10.172;2023-07-31T13:25:11;16.80;1.00
2463;DHT22;1243;54.298;10.172;2023-07-31T13:27:37;16.80;1.00
2463;DHT22;1243;54.298;10.172;2023-07-31T13:30:03;16.80;1.00
2463;DHT22;1243;54.298;10.172;2023-07-31T13:32:29;16.80;1.00
2463;DHT22;1243;54.298;10.172;2023-07-31T13:34:56;16.90;1.00
2463;DHT22;1243;54.298;10.172;2023-07-31T13:37:21;16.90;1.00
2463;DHT22;1243;54.298;10.172;2023-07-31T13:39:47;16.90;1.00
2463;DHT22;1243;54.298;10.172;2023-07-31T13:42:16;17.00;1.00
2463;DHT22;1243;54.298;10.172;2023-07-31T13:44:42;17.10;1.00
2463;DHT22;1243;54.298;10.172;2023-07-31T13:47:09;17.10;1.00
2463;DHT22;1243;54.298;10.172;2023-07-31T13:49:35;17.50;1.00
2463;DHT22;1243;54.298;10.172;2023-07-31T13:52:02;17.90;1.00
2463;DHT22;1243;54.298;10.172;2023-07-31T13:54:28;18.20;1.00
2463;DHT22;1243;54.298;10.172;2023-07-31T13:56:54;18.30;1.00
2463;DHT22;1243;54.298;10.172;2023-07-31T13:59:21;18.30;1.00
2463;DHT22;1243;54.298;10.172;2023-07-31T14:01:47;18.30;1.00
2463;DHT22;1243;54.298;10.172;2023-07-31T14:04:14;18.20;1.00
2463;DHT22;1243;54.298;10.172;2023-07-31T14:06:40;18.10;1.00
2463;DHT22;1243;54.298;10.172;2023-07-31T14:09:06;18.30;1.00
2463;DHT22;1243;54.298;10.172;2023-07-31T14:11:33;18.40;1.00
2463;DHT22;1243;54.298;10.172;2023-07-31T14:13:59;18.50;99.90
2463;DHT22;1243;54.298;10.172;2023-07-31T14:16:28;18.80;99.90
2463;DHT22;1243;54.298;10.172;2023-07-31T14:18:54;18.90;99.90
2463;DHT22;1243;54.298;10.172;2023-07-31T14:21:20;19.30;99.90
2463;DHT22;1243;54.298;10.172;2023-07-31T14:23:48;19.40;99.90
2463;DHT22;1243;54.298;10.172;2023-07-31T14:26:14;19.50;99.90
2463;DHT22;1243;54.298;10.172;2023-07-31T14:28:41;19.50;99.90
2463;DHT22;1243;54.298;10.172;2023-07-31T14:31:08;19.60;99.90
2463;DHT22;1243;54.298;10.172;2023-07-31T14:33:35;19.60;99.90
2463;DHT22;1243;54.298;10.172;2023-07-31T14:36:02;19.70;99.90
2463;DHT22;1243;54.298;10.172;2023-07-31T14:38:29;19.60;99.90
2463;DHT22;1243;54.298;10.172;2023-07-31T14:40:57;19.50;84.20
2463;DHT22;1243;54.298;10.172;2023-07-31T14:43:24;19.50;66.50
2463;DHT22;1243;54.298;10.172;2023-07-31T14:45:49;19.40;45.10
2463;DHT22;1243;54.298;10.172;2023-07-31T14:48:16;19.20;40.90
2463;DHT22;1243;54.298;10.172;2023-07-31T14:50:42;19.00;40.80
2463;DHT22;1243;54.298;10.172;2023-07-31T14:53:08;18.90;40.50
2463;DHT22;1243;54.298;10.172;2023-07-31T14:55:34;18.80;31.70
2463;DHT22;1243;54.298;10.172;2023-07-31T14:58:02;18.70;19.20
2463;DHT22;1243;54.298;10.172;2023-07-31T15:00:28;18.60;17.10
2463;DHT22;1243;54.298;10.172;2023-07-31T15:02:56;18.50;19.50
2463;DHT22;1243;54.298;10.172;2023-07-31T15:05:22;18.50;40.20
2463;DHT22;1243;54.298;10.172;2023-07-31T15:07:48;18.50;58.90
2463;DHT22;1243;54.298;10.172;2023-07-31T15:10:14;18.60;66.70
2463;DHT22;1243;54.298;10.172;2023-07-31T15:12:40;18.80;76.10
2463;DHT22;1243;54.298;10.172;2023-07-31T15:15:06;18.80;75.50
2463;DHT22;1243;54.298;10.172;2023-07-31T15:17:32;18.80;59.10
2463;DHT22;1243;54.298;10.172;2023-07-31T15:19:58;18.80;42.90
2463;DHT22;1243;54.298;10.172;2023-07-31T15:22:24;18.80;46.60
2463;DHT22;1243;54.298;10.172;2023-07-31T15:24:50;18.80;40.60
2463;DHT22;1243;54.298;10.172;2023-07-31T15:27:17;18.80;29.40
2463;DHT22;1243;54.298;10.172;2023-07-31T15:29:42;18.80;32.10
2463;DHT22;1243;54.298;10.172;2023-07-31T15:32:08;18.70;36.40
2463;DHT22;1243;54.298;10.172;2023-07-31T15:34:34;18.60;35.80
2463;DHT22;1243;54.298;10.172;2023-07-31T15:37:00;18.50;37.80
2463;DHT22;1243;54.298;10.172;2023-07-31T15:39:25;18.30;40.00
2463;DHT22;1243;54.298;10.172;2023-07-31T15:41:51;18.30;50.50
2463;DHT22;1243;54.298;10.172;2023-07-31T15:44:17;18.10;50.60
2463;DHT22;1243;54.298;10.172;2023-07-31T15:46:43;18.10;69.60
2463;DHT22;1243;54.298;10.172;2023-07-31T15:49:08;18.10;81.50
2463;DHT22;1243;54.298;10.172;2023-07-31T15:51:34;18.10;90.10
2463;DHT22;1243;54.298;10.172;2023-07-31T15:54:00;18.10;88.80
2463;DHT22;1243;54.298;10.172;2023-07-31T15:56:25;18.00;74.40